DEEYI EDDP-EDVE
Flight info
| Callsign | DEEYI |
|---|---|
| Flight time | 0h 59m |
| Altitude | 6000 |
| Route | DCT LEG DCT MAG DCT HLZ DCT |
| Aircraft | C172/L-SDFG/C |
Departure
| Time | 2026-05-05 20:32 |
|---|---|
| Airport | Leipzig/Halle Airport (EDDP) |
Arrival
| Time | 2026-05-05 21:31 |
|---|---|
| Airport | Braunschweig-Wolfsburg Airport (EDVE) |
| Time | Latitude | Longitude | Altitude | Speed | Heading |
|---|---|---|---|---|---|
| 2026-05-05 20:14 | 51.41838 | 12.22411 | 441 ft | 0 kts | 190° |
| 2026-05-05 20:25 | 51.41837 | 12.22411 | 441 ft | 0 kts | 190° |
| 2026-05-05 20:25 | 51.41824 | 12.22407 | 441 ft | 4 kts | 191° |
| 2026-05-05 20:25 | 51.41781 | 12.22392 | 442 ft | 6 kts | 198° |
| 2026-05-05 20:26 | 51.41737 | 12.22420 | 443 ft | 9 kts | 93° |
| 2026-05-05 20:26 | 51.41720 | 12.22535 | 445 ft | 12 kts | 103° |
| 2026-05-05 20:26 | 51.41692 | 12.22687 | 446 ft | 16 kts | 106° |
| 2026-05-05 20:26 | 51.41661 | 12.22867 | 450 ft | 17 kts | 104° |
| 2026-05-05 20:27 | 51.41627 | 12.23071 | 451 ft | 20 kts | 103° |
| 2026-05-05 20:27 | 51.41578 | 12.23213 | 453 ft | 14 kts | 155° |
| 2026-05-05 20:27 | 51.41472 | 12.23239 | 456 ft | 16 kts | 176° |
| 2026-05-05 20:27 | 51.41413 | 12.23246 | 458 ft | 0 kts | 163° |
| 2026-05-05 20:29 | 51.41412 | 12.23247 | 458 ft | 0 kts | 163° |
| 2026-05-05 20:29 | 51.41403 | 12.23249 | 458 ft | 2 kts | 177° |
| 2026-05-05 20:30 | 51.41379 | 12.23249 | 458 ft | 4 kts | 178° |
| 2026-05-05 20:30 | 51.41342 | 12.23253 | 459 ft | 6 kts | 176° |
| 2026-05-05 20:30 | 51.41288 | 12.23261 | 459 ft | 6 kts | 150° |
| 2026-05-05 20:30 | 51.41297 | 12.23324 | 459 ft | 7 kts | 78° |
| 2026-05-05 20:31 | 51.41310 | 12.23654 | 456 ft | 54 kts | 81° |
| 2026-05-05 20:31 | 51.41331 | 12.24411 | 543 ft | 69 kts | 84° |
| 2026-05-05 20:31 | 51.41271 | 12.25160 | 711 ft | 68 kts | 84° |
| 2026-05-05 20:31 | 51.41247 | 12.25964 | 835 ft | 75 kts | 84° |
| 2026-05-05 20:32 | 51.41219 | 12.26818 | 1003 ft | 77 kts | 87° |
| 2026-05-05 20:32 | 51.41155 | 12.27685 | 1155 ft | 80 kts | 88° |
| 2026-05-05 20:32 | 51.41087 | 12.28576 | 1310 ft | 81 kts | 86° |
| 2026-05-05 20:32 | 51.41024 | 12.29478 | 1453 ft | 84 kts | 92° |
| 2026-05-05 20:33 | 51.40921 | 12.30389 | 1609 ft | 83 kts | 90° |
| 2026-05-05 20:33 | 51.40828 | 12.31302 | 1755 ft | 83 kts | 89° |
| 2026-05-05 20:33 | 51.40791 | 12.32220 | 1908 ft | 81 kts | 78° |
| 2026-05-05 20:33 | 51.40841 | 12.33105 | 2057 ft | 80 kts | 77° |
| 2026-05-05 20:34 | 51.40905 | 12.33994 | 2206 ft | 80 kts | 76° |
| 2026-05-05 20:34 | 51.40978 | 12.34861 | 2352 ft | 79 kts | 72° |
| 2026-05-05 20:34 | 51.41338 | 12.35461 | 2511 ft | 79 kts | 20° |
| 2026-05-05 20:34 | 51.41897 | 12.35394 | 2669 ft | 84 kts | 353° |
| 2026-05-05 20:35 | 51.42463 | 12.35128 | 2817 ft | 85 kts | 350° |
| 2026-05-05 20:35 | 51.43018 | 12.34847 | 2962 ft | 85 kts | 350° |
| 2026-05-05 20:35 | 51.43588 | 12.34556 | 3109 ft | 85 kts | 350° |
| 2026-05-05 20:35 | 51.44152 | 12.34271 | 3254 ft | 85 kts | 350° |
| 2026-05-05 20:36 | 51.44714 | 12.33988 | 3399 ft | 85 kts | 349° |
| 2026-05-05 20:36 | 51.45276 | 12.33711 | 3543 ft | 85 kts | 350° |
| 2026-05-05 20:36 | 51.45842 | 12.33427 | 3688 ft | 85 kts | 350° |
| 2026-05-05 20:36 | 51.46414 | 12.33139 | 3836 ft | 86 kts | 349° |
| 2026-05-05 20:37 | 51.46968 | 12.32710 | 3990 ft | 92 kts | 333° |
| 2026-05-05 20:37 | 51.47502 | 12.32144 | 4138 ft | 93 kts | 333° |
| 2026-05-05 20:37 | 51.48044 | 12.31556 | 4285 ft | 95 kts | 333° |
| 2026-05-05 20:37 | 51.48597 | 12.30964 | 4432 ft | 96 kts | 332° |
| 2026-05-05 20:38 | 51.49159 | 12.30366 | 4581 ft | 97 kts | 332° |
| 2026-05-05 20:38 | 51.49722 | 12.29775 | 4732 ft | 97 kts | 332° |
| 2026-05-05 20:38 | 51.50290 | 12.29181 | 4882 ft | 97 kts | 332° |
| 2026-05-05 20:38 | 51.50860 | 12.28598 | 5032 ft | 97 kts | 332° |
| 2026-05-05 20:39 | 51.51435 | 12.28017 | 5190 ft | 97 kts | 332° |
| 2026-05-05 20:39 | 51.52010 | 12.27441 | 5339 ft | 98 kts | 332° |
| 2026-05-05 20:39 | 51.52586 | 12.26867 | 5479 ft | 98 kts | 332° |
| 2026-05-05 20:39 | 51.53162 | 12.26296 | 5618 ft | 98 kts | 332° |
| 2026-05-05 20:40 | 51.53742 | 12.25718 | 5769 ft | 98 kts | 332° |
| 2026-05-05 20:40 | 51.54322 | 12.25143 | 5897 ft | 100 kts | 332° |
| 2026-05-05 20:40 | 51.54968 | 12.24521 | 5838 ft | 117 kts | 332° |
| 2026-05-05 20:40 | 51.55690 | 12.23835 | 5820 ft | 122 kts | 333° |
| 2026-05-05 20:41 | 51.56434 | 12.23130 | 5826 ft | 124 kts | 333° |
| 2026-05-05 20:41 | 51.57178 | 12.22422 | 5833 ft | 125 kts | 331° |
| 2026-05-05 20:41 | 51.57936 | 12.21715 | 5833 ft | 126 kts | 332° |
| 2026-05-05 20:41 | 51.58699 | 12.21001 | 5817 ft | 127 kts | 333° |
| 2026-05-05 20:42 | 51.59458 | 12.20288 | 5847 ft | 126 kts | 333° |
| 2026-05-05 20:42 | 51.60220 | 12.19563 | 5820 ft | 127 kts | 333° |
| 2026-05-05 20:42 | 51.60981 | 12.18839 | 5822 ft | 127 kts | 333° |
| 2026-05-05 20:42 | 51.61735 | 12.18113 | 5827 ft | 127 kts | 332° |
| 2026-05-05 20:43 | 51.62500 | 12.17376 | 5827 ft | 127 kts | 332° |
| 2026-05-05 20:43 | 51.63265 | 12.16647 | 5826 ft | 128 kts | 333° |
| 2026-05-05 20:43 | 51.64028 | 12.15920 | 5825 ft | 128 kts | 333° |
| 2026-05-05 20:43 | 51.64792 | 12.15191 | 5824 ft | 128 kts | 333° |
| 2026-05-05 20:44 | 51.65557 | 12.14462 | 5824 ft | 127 kts | 332° |
| 2026-05-05 20:44 | 51.66321 | 12.13736 | 5815 ft | 127 kts | 332° |
| 2026-05-05 20:44 | 51.67073 | 12.13022 | 5809 ft | 126 kts | 332° |
| 2026-05-05 20:44 | 51.67825 | 12.12287 | 5807 ft | 126 kts | 333° |
| 2026-05-05 20:45 | 51.69313 | 12.10839 | 5809 ft | 125 kts | 333° |
| 2026-05-05 20:45 | 51.70060 | 12.10110 | 5807 ft | 126 kts | 332° |
| 2026-05-05 20:45 | 51.70800 | 12.09390 | 5809 ft | 126 kts | 333° |
| 2026-05-05 20:46 | 51.71552 | 12.08658 | 5807 ft | 126 kts | 332° |
| 2026-05-05 20:46 | 51.72310 | 12.07925 | 5814 ft | 126 kts | 333° |
| 2026-05-05 20:46 | 51.73065 | 12.07193 | 5809 ft | 126 kts | 332° |
| 2026-05-05 20:46 | 51.73809 | 12.06470 | 5816 ft | 127 kts | 332° |
| 2026-05-05 20:47 | 51.74570 | 12.05736 | 5808 ft | 127 kts | 333° |
| 2026-05-05 20:47 | 51.75326 | 12.05004 | 5801 ft | 127 kts | 332° |
| 2026-05-05 20:47 | 51.76081 | 12.04268 | 5808 ft | 126 kts | 331° |
| 2026-05-05 20:47 | 51.76825 | 12.03547 | 5811 ft | 125 kts | 332° |
| 2026-05-05 20:48 | 51.77582 | 12.02812 | 5808 ft | 125 kts | 333° |
| 2026-05-05 20:48 | 51.78318 | 12.02095 | 5813 ft | 124 kts | 332° |
| 2026-05-05 20:48 | 51.79063 | 12.01370 | 5818 ft | 124 kts | 332° |
| 2026-05-05 20:48 | 51.79794 | 12.00654 | 5821 ft | 124 kts | 332° |
| 2026-05-05 20:49 | 51.80537 | 11.99929 | 5821 ft | 124 kts | 332° |
| 2026-05-05 20:49 | 51.81283 | 11.99206 | 5827 ft | 124 kts | 332° |
| 2026-05-05 20:49 | 51.82019 | 11.98488 | 5829 ft | 125 kts | 332° |
| 2026-05-05 20:49 | 51.82774 | 11.97754 | 5830 ft | 126 kts | 332° |
| 2026-05-05 20:50 | 51.83520 | 11.97031 | 5834 ft | 126 kts | 332° |
| 2026-05-05 20:50 | 51.84273 | 11.96298 | 5837 ft | 126 kts | 332° |
| 2026-05-05 20:50 | 51.85027 | 11.95564 | 5835 ft | 126 kts | 332° |
| 2026-05-05 20:50 | 51.85770 | 11.94838 | 5834 ft | 125 kts | 332° |
| 2026-05-05 20:51 | 51.86514 | 11.94110 | 5839 ft | 125 kts | 332° |
| 2026-05-05 20:51 | 51.87253 | 11.93385 | 5839 ft | 125 kts | 332° |
| 2026-05-05 20:51 | 51.87996 | 11.92654 | 5840 ft | 125 kts | 332° |
| 2026-05-05 20:51 | 51.88741 | 11.91917 | 5838 ft | 125 kts | 332° |
| 2026-05-05 20:52 | 51.89490 | 11.91177 | 5844 ft | 125 kts | 332° |
| 2026-05-05 20:52 | 51.90232 | 11.90441 | 5849 ft | 125 kts | 330° |
| 2026-05-05 20:52 | 51.90979 | 11.89712 | 5837 ft | 126 kts | 332° |
| 2026-05-05 20:52 | 51.91732 | 11.88970 | 5850 ft | 127 kts | 330° |
| 2026-05-05 20:53 | 51.92492 | 11.88228 | 5842 ft | 127 kts | 332° |
| 2026-05-05 20:53 | 51.93240 | 11.87492 | 5839 ft | 127 kts | 332° |
| 2026-05-05 20:53 | 51.93994 | 11.86751 | 5835 ft | 127 kts | 332° |
| 2026-05-05 20:53 | 51.94746 | 11.86014 | 5838 ft | 126 kts | 332° |
| 2026-05-05 20:54 | 51.95496 | 11.85273 | 5840 ft | 126 kts | 332° |
| 2026-05-05 20:54 | 51.96178 | 11.84346 | 5841 ft | 128 kts | 317° |
| 2026-05-05 20:54 | 51.96811 | 11.83347 | 5842 ft | 128 kts | 318° |
| 2026-05-05 20:54 | 51.97392 | 11.82252 | 5842 ft | 128 kts | 313° |
| 2026-05-05 20:55 | 51.97992 | 11.81197 | 5840 ft | 127 kts | 317° |
| 2026-05-05 20:55 | 51.98640 | 11.80214 | 5842 ft | 127 kts | 321° |
| 2026-05-05 20:55 | 51.99316 | 11.79297 | 5842 ft | 127 kts | 324° |
| 2026-05-05 20:55 | 52.00000 | 11.78377 | 5841 ft | 128 kts | 321° |
| 2026-05-05 20:56 | 52.00630 | 11.77351 | 5840 ft | 128 kts | 315° |
| 2026-05-05 20:56 | 52.01214 | 11.76250 | 5841 ft | 129 kts | 312° |
| 2026-05-05 20:56 | 52.01765 | 11.75098 | 5842 ft | 130 kts | 309° |
| 2026-05-05 20:56 | 52.02290 | 11.73921 | 5843 ft | 130 kts | 307° |
| 2026-05-05 20:57 | 52.02800 | 11.72717 | 5841 ft | 130 kts | 306° |
| 2026-05-05 20:57 | 52.03302 | 11.71489 | 5847 ft | 130 kts | 306° |
| 2026-05-05 20:57 | 52.03793 | 11.70256 | 5844 ft | 130 kts | 305° |
| 2026-05-05 20:57 | 52.04276 | 11.69019 | 5846 ft | 129 kts | 305° |
| 2026-05-05 20:58 | 52.04749 | 11.67791 | 5841 ft | 129 kts | 304° |
| 2026-05-05 20:58 | 52.05219 | 11.66564 | 5839 ft | 126 kts | 305° |
| 2026-05-05 20:58 | 52.05667 | 11.65386 | 5836 ft | 121 kts | 305° |
| 2026-05-05 20:58 | 52.06104 | 11.64231 | 5830 ft | 119 kts | 304° |
| 2026-05-05 20:59 | 52.06534 | 11.63087 | 5829 ft | 119 kts | 304° |
| 2026-05-05 20:59 | 52.06968 | 11.61928 | 5828 ft | 119 kts | 304° |
| 2026-05-05 20:59 | 52.07399 | 11.60775 | 5827 ft | 119 kts | 303° |
| 2026-05-05 20:59 | 52.07822 | 11.59642 | 5818 ft | 118 kts | 303° |
| 2026-05-05 21:00 | 52.08247 | 11.58502 | 5836 ft | 118 kts | 303° |
| 2026-05-05 21:00 | 52.08674 | 11.57360 | 5848 ft | 118 kts | 303° |
| 2026-05-05 21:00 | 52.09098 | 11.56215 | 5833 ft | 117 kts | 302° |
| 2026-05-05 21:00 | 52.09519 | 11.55083 | 5858 ft | 116 kts | 304° |
| 2026-05-05 21:01 | 52.09941 | 11.53946 | 5865 ft | 117 kts | 306° |
| 2026-05-05 21:01 | 52.10362 | 11.52813 | 5872 ft | 118 kts | 303° |
| 2026-05-05 21:01 | 52.10789 | 11.51664 | 5855 ft | 118 kts | 304° |
| 2026-05-05 21:01 | 52.11208 | 11.50534 | 5857 ft | 118 kts | 304° |
| 2026-05-05 21:02 | 52.11635 | 11.49387 | 5856 ft | 118 kts | 304° |
| 2026-05-05 21:02 | 52.12056 | 11.48252 | 5862 ft | 119 kts | 303° |
| 2026-05-05 21:02 | 52.12430 | 11.47035 | 5864 ft | 120 kts | 291° |
| 2026-05-05 21:02 | 52.12778 | 11.45820 | 5864 ft | 119 kts | 300° |
| 2026-05-05 21:03 | 52.13177 | 11.44631 | 5862 ft | 119 kts | 300° |
| 2026-05-05 21:03 | 52.13583 | 11.43458 | 5860 ft | 118 kts | 302° |
| 2026-05-05 21:03 | 52.13990 | 11.42298 | 5857 ft | 119 kts | 302° |
| 2026-05-05 21:03 | 52.14402 | 11.41144 | 5859 ft | 119 kts | 303° |
| 2026-05-05 21:04 | 52.14822 | 11.39979 | 5862 ft | 119 kts | 303° |
| 2026-05-05 21:04 | 52.15246 | 11.38812 | 5864 ft | 119 kts | 303° |
| 2026-05-05 21:04 | 52.15667 | 11.37659 | 5865 ft | 119 kts | 303° |
| 2026-05-05 21:04 | 52.16088 | 11.36507 | 5866 ft | 119 kts | 303° |
| 2026-05-05 21:05 | 52.16513 | 11.35348 | 5867 ft | 119 kts | 303° |
| 2026-05-05 21:05 | 52.16940 | 11.34182 | 5865 ft | 119 kts | 303° |
| 2026-05-05 21:05 | 52.17354 | 11.33034 | 5865 ft | 119 kts | 301° |
| 2026-05-05 21:05 | 52.17749 | 11.31850 | 5866 ft | 119 kts | 299° |
| 2026-05-05 21:06 | 52.18130 | 11.30655 | 5864 ft | 119 kts | 299° |
| 2026-05-05 21:06 | 52.18509 | 11.29450 | 5867 ft | 119 kts | 299° |
| 2026-05-05 21:06 | 52.18893 | 11.28263 | 5867 ft | 119 kts | 300° |
| 2026-05-05 21:06 | 52.19295 | 11.27090 | 5866 ft | 118 kts | 302° |
| 2026-05-05 21:07 | 52.19707 | 11.25926 | 5865 ft | 118 kts | 302° |
| 2026-05-05 21:07 | 52.20125 | 11.24767 | 5865 ft | 119 kts | 303° |
| 2026-05-05 21:07 | 52.20547 | 11.23609 | 5864 ft | 118 kts | 303° |
| 2026-05-05 21:07 | 52.20968 | 11.22456 | 5863 ft | 118 kts | 303° |
| 2026-05-05 21:08 | 52.21394 | 11.21295 | 5866 ft | 118 kts | 303° |
| 2026-05-05 21:08 | 52.21813 | 11.20150 | 5863 ft | 118 kts | 303° |
| 2026-05-05 21:08 | 52.22239 | 11.18989 | 5863 ft | 119 kts | 303° |
| 2026-05-05 21:08 | 52.22659 | 11.17842 | 5868 ft | 119 kts | 303° |
| 2026-05-05 21:09 | 52.23085 | 11.16681 | 5868 ft | 119 kts | 303° |
| 2026-05-05 21:09 | 52.23508 | 11.15524 | 5868 ft | 118 kts | 303° |
| 2026-05-05 21:09 | 52.23930 | 11.14372 | 5865 ft | 118 kts | 303° |
| 2026-05-05 21:09 | 52.24352 | 11.13218 | 5864 ft | 118 kts | 303° |
| 2026-05-05 21:10 | 52.24770 | 11.12077 | 5864 ft | 118 kts | 303° |
| 2026-05-05 21:10 | 52.25196 | 11.10914 | 5864 ft | 118 kts | 303° |
| 2026-05-05 21:10 | 52.25613 | 11.09770 | 5865 ft | 118 kts | 303° |
| 2026-05-05 21:10 | 52.26040 | 11.08605 | 5865 ft | 118 kts | 303° |
| 2026-05-05 21:11 | 52.26458 | 11.07458 | 5865 ft | 118 kts | 303° |
| 2026-05-05 21:11 | 52.26881 | 11.06301 | 5865 ft | 119 kts | 303° |
| 2026-05-05 21:11 | 52.27303 | 11.05143 | 5867 ft | 119 kts | 303° |
| 2026-05-05 21:11 | 52.27724 | 11.03989 | 5868 ft | 119 kts | 303° |
| 2026-05-05 21:12 | 52.28148 | 11.02829 | 5869 ft | 119 kts | 303° |
| 2026-05-05 21:12 | 52.28572 | 11.01663 | 5873 ft | 119 kts | 303° |
| 2026-05-05 21:12 | 52.28992 | 11.00511 | 5872 ft | 119 kts | 303° |
| 2026-05-05 21:12 | 52.29416 | 10.99343 | 5872 ft | 119 kts | 303° |
| 2026-05-05 21:13 | 52.29841 | 10.98177 | 5868 ft | 119 kts | 304° |
| 2026-05-05 21:13 | 52.30264 | 10.97017 | 5861 ft | 119 kts | 303° |
| 2026-05-05 21:13 | 52.30683 | 10.95862 | 5857 ft | 119 kts | 303° |
| 2026-05-05 21:13 | 52.31108 | 10.94694 | 5855 ft | 119 kts | 303° |
| 2026-05-05 21:14 | 52.31533 | 10.93522 | 5855 ft | 119 kts | 303° |
| 2026-05-05 21:14 | 52.31955 | 10.92362 | 5856 ft | 119 kts | 303° |
| 2026-05-05 21:14 | 52.32377 | 10.91198 | 5854 ft | 119 kts | 303° |
| 2026-05-05 21:14 | 52.32798 | 10.90039 | 5853 ft | 118 kts | 303° |
| 2026-05-05 21:15 | 52.33214 | 10.88889 | 5853 ft | 118 kts | 303° |
| 2026-05-05 21:15 | 52.33634 | 10.87729 | 5856 ft | 118 kts | 303° |
| 2026-05-05 21:15 | 52.34053 | 10.86572 | 5860 ft | 118 kts | 303° |
| 2026-05-05 21:15 | 52.34469 | 10.85423 | 5861 ft | 118 kts | 303° |
| 2026-05-05 21:16 | 52.34889 | 10.84262 | 5861 ft | 118 kts | 303° |
| 2026-05-05 21:16 | 52.35307 | 10.83108 | 5863 ft | 118 kts | 303° |
| 2026-05-05 21:16 | 52.35726 | 10.81947 | 5861 ft | 118 kts | 303° |
| 2026-05-05 21:16 | 52.36145 | 10.80790 | 5860 ft | 118 kts | 304° |
| 2026-05-05 21:17 | 52.36553 | 10.79645 | 5861 ft | 118 kts | 302° |
| 2026-05-05 21:17 | 52.36863 | 10.78389 | 5863 ft | 119 kts | 285° |
| 2026-05-05 21:17 | 52.37085 | 10.77075 | 5860 ft | 119 kts | 287° |
| 2026-05-05 21:17 | 52.37271 | 10.75749 | 5857 ft | 119 kts | 284° |
| 2026-05-05 21:18 | 52.37436 | 10.74420 | 5856 ft | 120 kts | 282° |
| 2026-05-05 21:18 | 52.37589 | 10.73081 | 5857 ft | 120 kts | 282° |
| 2026-05-05 21:18 | 52.37744 | 10.71738 | 5858 ft | 120 kts | 282° |
| 2026-05-05 21:18 | 52.37883 | 10.70409 | 5860 ft | 120 kts | 276° |
| 2026-05-05 21:19 | 52.37928 | 10.69030 | 5868 ft | 120 kts | 273° |
| 2026-05-05 21:19 | 52.37958 | 10.67675 | 5859 ft | 120 kts | 274° |
| 2026-05-05 21:19 | 52.37981 | 10.66296 | 5840 ft | 120 kts | 272° |
| 2026-05-05 21:19 | 52.38008 | 10.64893 | 5743 ft | 128 kts | 273° |
| 2026-05-05 21:20 | 52.38036 | 10.63404 | 5628 ft | 133 kts | 273° |
| 2026-05-05 21:20 | 52.38067 | 10.61876 | 5497 ft | 135 kts | 274° |
| 2026-05-05 21:20 | 52.38095 | 10.60327 | 5370 ft | 136 kts | 274° |
| 2026-05-05 21:20 | 52.38122 | 10.58774 | 5246 ft | 137 kts | 273° |
| 2026-05-05 21:21 | 52.38151 | 10.57224 | 5123 ft | 138 kts | 273° |
| 2026-05-05 21:21 | 52.38180 | 10.55638 | 4998 ft | 138 kts | 273° |
| 2026-05-05 21:21 | 52.38210 | 10.54069 | 4877 ft | 138 kts | 273° |
| 2026-05-05 21:21 | 52.38238 | 10.52515 | 4751 ft | 138 kts | 273° |
| 2026-05-05 21:22 | 52.38266 | 10.50930 | 4624 ft | 139 kts | 274° |
| 2026-05-05 21:22 | 52.38291 | 10.49350 | 4503 ft | 139 kts | 273° |
| 2026-05-05 21:22 | 52.38314 | 10.47785 | 4381 ft | 139 kts | 273° |
| 2026-05-05 21:22 | 52.38334 | 10.46200 | 4242 ft | 139 kts | 273° |
| 2026-05-05 21:23 | 52.38351 | 10.44611 | 4117 ft | 139 kts | 274° |
| 2026-05-05 21:23 | 52.38364 | 10.43030 | 3972 ft | 141 kts | 273° |
| 2026-05-05 21:23 | 52.38384 | 10.41413 | 3773 ft | 145 kts | 273° |
| 2026-05-05 21:23 | 52.38397 | 10.39754 | 3576 ft | 146 kts | 273° |
| 2026-05-05 21:24 | 52.38315 | 10.38094 | 3369 ft | 149 kts | 251° |
| 2026-05-05 21:24 | 52.37657 | 10.36840 | 3166 ft | 145 kts | 206° |
| 2026-05-05 21:24 | 52.36740 | 10.36227 | 2972 ft | 144 kts | 195° |
| 2026-05-05 21:24 | 52.35792 | 10.35712 | 2772 ft | 143 kts | 189° |
| 2026-05-05 21:25 | 52.34867 | 10.35914 | 2566 ft | 133 kts | 146° |
| 2026-05-05 21:25 | 52.34096 | 10.36711 | 2375 ft | 131 kts | 138° |
| 2026-05-05 21:25 | 52.33347 | 10.37564 | 2178 ft | 130 kts | 137° |
| 2026-05-05 21:25 | 52.32773 | 10.38607 | 1972 ft | 123 kts | 104° |
| 2026-05-05 21:26 | 52.32597 | 10.39897 | 1910 ft | 103 kts | 90° |
| 2026-05-05 21:26 | 52.32489 | 10.41008 | 1722 ft | 100 kts | 96° |
| 2026-05-05 21:26 | 52.32210 | 10.41980 | 1666 ft | 92 kts | 116° |
| 2026-05-05 21:26 | 52.31838 | 10.42821 | 1604 ft | 86 kts | 120° |
| 2026-05-05 21:27 | 52.31522 | 10.43464 | 1673 ft | 68 kts | 116° |
| 2026-05-05 21:27 | 52.31332 | 10.44225 | 1578 ft | 72 kts | 95° |
| 2026-05-05 21:27 | 52.31277 | 10.44944 | 1550 ft | 68 kts | 79° |
| 2026-05-05 21:27 | 52.31340 | 10.45754 | 1481 ft | 60 kts | 77° |
| 2026-05-05 21:28 | 52.31422 | 10.46367 | 1384 ft | 61 kts | 71° |
| 2026-05-05 21:28 | 52.31406 | 10.47067 | 1325 ft | 60 kts | 82° |
| 2026-05-05 21:28 | 52.31449 | 10.47788 | 1226 ft | 62 kts | 75° |
| 2026-05-05 21:28 | 52.31522 | 10.48455 | 1073 ft | 68 kts | 72° |
| 2026-05-05 21:29 | 52.31570 | 10.49190 | 998 ft | 60 kts | 81° |
| 2026-05-05 21:29 | 52.31601 | 10.49939 | 877 ft | 65 kts | 80° |
| 2026-05-05 21:29 | 52.31650 | 10.50681 | 703 ft | 73 kts | 85° |
| 2026-05-05 21:29 | 52.31685 | 10.51405 | 672 ft | 66 kts | 78° |
| 2026-05-05 21:30 | 52.31736 | 10.52170 | 626 ft | 65 kts | 87° |
| 2026-05-05 21:30 | 52.31787 | 10.52896 | 551 ft | 70 kts | 78° |
| 2026-05-05 21:30 | 52.31821 | 10.53635 | 487 ft | 68 kts | 80° |
| 2026-05-05 21:30 | 52.31852 | 10.54424 | 402 ft | 70 kts | 81° |
| 2026-05-05 21:31 | 52.31898 | 10.55205 | 328 ft | 66 kts | 82° |
| 2026-05-05 21:31 | 52.31935 | 10.55887 | 279 ft | 49 kts | 87° |
| 2026-05-05 21:31 | 52.31957 | 10.56286 | 284 ft | 11 kts | 84° |
| 2026-05-05 21:31 | 52.31945 | 10.56371 | 285 ft | 5 kts | 137° |
| 2026-05-05 21:32 | 52.31905 | 10.56397 | 285 ft | 8 kts | 176° |
| 2026-05-05 21:32 | 52.31835 | 10.56405 | 284 ft | 11 kts | 172° |
| 2026-05-05 21:32 | 52.31776 | 10.56325 | 282 ft | 9 kts | 245° |
| 2026-05-05 21:32 | 52.31707 | 10.56320 | 282 ft | 11 kts | 179° |
| 2026-05-05 21:33 | 52.31690 | 10.56305 | 282 ft | 4 kts | 260° |
| 2026-05-05 21:33 | 52.31689 | 10.56222 | 280 ft | 9 kts | 264° |
| 2026-05-05 21:33 | 52.31686 | 10.56157 | 279 ft | 0 kts | 261° |